Terminal Aerodrome Forecast
Issued by NWS

Home | Current Version | Previous Version | Text Only | Print | Product List | Glossary On
Versions: 1 2 3 4 5 6 7 8 9 10 11 12
000
FTUS44 KEPZ 022336
TAFDMN
TAF
KDMN 022336Z 0300/0324 25011G19KT P6SM VCTS FEW080CB BKN130 OVC180
      TEMPO 0300/0303 VRB15G30KT 5SM TSRA SCT070CB BKN110
     FM030400 29008KT P6SM VCSH SCT080 BKN150
     FM031200 27006KT P6SM SCT070 BKN150
     FM032100 25010KT P6SM FEW070 BKN120=

USA.gov is the U.S. government's official web portal to all federal, state and local government web resources and services.